sensor_id;sensor_type;location;lat;lon;timestamp;temperature;humidity
11656;DHT22;5884;43.618;1.438;2023-08-30T04:47:29;16.20;99.90
11656;DHT22;5884;43.618;1.438;2023-08-30T04:49:57;16.10;99.90
11656;DHT22;5884;43.618;1.438;2023-08-30T04:52:25;16.10;99.90
11656;DHT22;5884;43.618;1.438;2023-08-30T04:54:53;16.10;99.90
11656;DHT22;5884;43.618;1.438;2023-08-30T04:57:20;16.10;99.90
11656;DHT22;5884;43.618;1.438;2023-08-30T04:59:48;16.00;99.90
11656;DHT22;5884;43.618;1.438;2023-08-30T05:02:15;16.10;99.90
11656;DHT22;5884;43.618;1.438;2023-08-30T05:04:44;16.10;99.90
11656;DHT22;5884;43.618;1.438;2023-08-30T05:07:11;16.20;99.90
11656;DHT22;5884;43.618;1.438;2023-08-30T05:09:38;16.20;99.90
11656;DHT22;5884;43.618;1.438;2023-08-30T05:12:07;16.20;99.90
11656;DHT22;5884;43.618;1.438;2023-08-30T05:14:34;16.30;99.90
11656;DHT22;5884;43.618;1.438;2023-08-30T05:17:01;16.20;99.90
11656;DHT22;5884;43.618;1.438;2023-08-30T05:19:29;16.30;99.90
11656;DHT22;5884;43.618;1.438;2023-08-30T05:21:57;16.30;99.90
11656;DHT22;5884;43.618;1.438;2023-08-30T05:24:25;16.30;99.90
11656;DHT22;5884;43.618;1.438;2023-08-30T05:26:53;16.30;99.90
11656;DHT22;5884;43.618;1.438;2023-08-30T05:29:21;16.30;99.90
11656;DHT22;5884;43.618;1.438;2023-08-30T05:31:48;16.30;99.90
11656;DHT22;5884;43.618;1.438;2023-08-30T05:34:15;16.30;99.90
11656;DHT22;5884;43.618;1.438;2023-08-30T05:36:42;16.30;99.90
11656;DHT22;5884;43.618;1.438;2023-08-30T05:39:11;16.30;99.90
11656;DHT22;5884;43.618;1.438;2023-08-30T05:41:39;16.30;99.90
11656;DHT22;5884;43.618;1.438;2023-08-30T05:44:06;16.40;99.90
11656;DHT22;5884;43.618;1.438;2023-08-30T05:46:34;16.40;99.90
11656;DHT22;5884;43.618;1.438;2023-08-30T05:49:02;16.50;99.90
11656;DHT22;5884;43.618;1.438;2023-08-30T05:51:29;16.50;99.90
11656;DHT22;5884;43.618;1.438;2023-08-30T05:53:56;16.50;99.90
11656;DHT22;5884;43.618;1.438;2023-08-30T05:56:25;16.50;99.90
11656;DHT22;5884;43.618;1.438;2023-08-30T05:58:52;16.60;99.90
11656;DHT22;5884;43.618;1.438;2023-08-30T06:01:19;16.60;99.90
11656;DHT22;5884;43.618;1.438;2023-08-30T06:03:46;16.60;99.90
11656;DHT22;5884;43.618;1.438;2023-08-30T06:06:14;16.70;99.90
11656;DHT22;5884;43.618;1.438;2023-08-30T06:08:42;16.70;99.90
11656;DHT22;5884;43.618;1.438;2023-08-30T06:11:09;16.70;99.90
11656;DHT22;5884;43.618;1.438;2023-08-30T06:13:38;16.70;99.90
11656;DHT22;5884;43.618;1.438;2023-08-30T06:16:05;16.70;99.90
11656;DHT22;5884;43.618;1.438;2023-08-30T06:18:33;16.80;99.90
11656;DHT22;5884;43.618;1.438;2023-08-30T06:21:01;16.80;99.90
11656;DHT22;5884;43.618;1.438;2023-08-30T06:23:29;16.80;99.90
11656;DHT22;5884;43.618;1.438;2023-08-30T06:25:56;16.80;99.90
11656;DHT22;5884;43.618;1.438;2023-08-30T06:28:24;16.90;99.90
11656;DHT22;5884;43.618;1.438;2023-08-30T06:30:53;17.00;99.90
11656;DHT22;5884;43.618;1.438;2023-08-30T06:33:20;17.00;99.90
11656;DHT22;5884;43.618;1.438;2023-08-30T06:35:48;17.00;99.90
11656;DHT22;5884;43.618;1.438;2023-08-30T06:38:16;17.10;99.90
11656;DHT22;5884;43.618;1.438;2023-08-30T06:40:44;17.10;99.90
11656;DHT22;5884;43.618;1.438;2023-08-30T06:43:11;17.20;99.90
11656;DHT22;5884;43.618;1.438;2023-08-30T06:45:39;17.20;99.90
11656;DHT22;5884;43.618;1.438;2023-08-30T06:48:08;17.30;99.90
11656;DHT22;5884;43.618;1.438;2023-08-30T06:50:35;17.50;99.90
11656;DHT22;5884;43.618;1.438;2023-08-30T06:53:03;17.40;99.90
11656;DHT22;5884;43.618;1.438;2023-08-30T06:55:30;17.40;99.90
11656;DHT22;5884;43.618;1.438;2023-08-30T06:57:59;17.40;99.90
11656;DHT22;5884;43.618;1.438;2023-08-30T07:00:26;17.40;99.90
11656;DHT22;5884;43.618;1.438;2023-08-30T07:02:53;17.30;99.90
11656;DHT22;5884;43.618;1.438;2023-08-30T07:05:23;17.40;99.90
11656;DHT22;5884;43.618;1.438;2023-08-30T07:07:50;17.40;99.90
11656;DHT22;5884;43.618;1.438;2023-08-30T07:10:18;17.40;99.90
11656;DHT22;5884;43.618;1.438;2023-08-30T07:12:45;17.40;99.90
11656;DHT22;5884;43.618;1.438;2023-08-30T07:15:14;17.50;99.90
11656;DHT22;5884;43.618;1.438;2023-08-30T07:17:43;17.50;99.90
11656;DHT22;5884;43.618;1.438;2023-08-30T07:20:11;17.50;99.90
11656;DHT22;5884;43.618;1.438;2023-08-30T07:22:39;17.50;99.90
11656;DHT22;5884;43.618;1.438;2023-08-30T07:25:07;17.50;99.90
11656;DHT22;5884;43.618;1.438;2023-08-30T07:27:35;17.60;99.90
11656;DHT22;5884;43.618;1.438;2023-08-30T07:30:03;17.60;99.90
11656;DHT22;5884;43.618;1.438;2023-08-30T07:32:31;17.60;99.90
11656;DHT22;5884;43.618;1.438;2023-08-30T07:34:59;17.50;99.90
11656;DHT22;5884;43.618;1.438;2023-08-30T07:37:26;17.50;99.90
11656;DHT22;5884;43.618;1.438;2023-08-30T07:39:54;17.50;99.90
11656;DHT22;5884;43.618;1.438;2023-08-30T07:42:22;17.60;99.90
11656;DHT22;5884;43.618;1.438;2023-08-30T07:44:49;17.60;99.90
11656;DHT22;5884;43.618;1.438;2023-08-30T07:47:17;17.70;99.90
11656;DHT22;5884;43.618;1.438;2023-08-30T07:49:44;17.80;99.90
11656;DHT22;5884;43.618;1.438;2023-08-30T07:52:11;17.90;99.90
11656;DHT22;5884;43.618;1.438;2023-08-30T07:54:39;17.90;99.90
11656;DHT22;5884;43.618;1.438;2023-08-30T07:57:08;18.00;99.90
11656;DHT22;5884;43.618;1.438;2023-08-30T07:59:36;18.10;99.90
11656;DHT22;5884;43.618;1.438;2023-08-30T08:02:04;18.30;99.90
11656;DHT22;5884;43.618;1.438;2023-08-30T08:04:33;18.30;99.90
11656;DHT22;5884;43.618;1.438;2023-08-30T08:07:01;18.30;99.90
11656;DHT22;5884;43.618;1.438;2023-08-30T08:09:28;18.20;99.90
11656;DHT22;5884;43.618;1.438;2023-08-30T08:11:56;18.20;99.90
11656;DHT22;5884;43.618;1.438;2023-08-30T08:14:24;18.20;99.90
11656;DHT22;5884;43.618;1.438;2023-08-30T08:16:52;18.20;99.90
11656;DHT22;5884;43.618;1.438;2023-08-30T08:19:19;18.20;99.90
11656;DHT22;5884;43.618;1.438;2023-08-30T08:21:47;18.10;99.90
11656;DHT22;5884;43.618;1.438;2023-08-30T08:24:14;18.10;99.90
11656;DHT22;5884;43.618;1.438;2023-08-30T08:26:42;18.30;99.90
11656;DHT22;5884;43.618;1.438;2023-08-30T08:29:09;18.40;99.90
11656;DHT22;5884;43.618;1.438;2023-08-30T08:31:38;18.50;99.90
11656;DHT22;5884;43.618;1.438;2023-08-30T08:34:08;18.40;99.90
11656;DHT22;5884;43.618;1.438;2023-08-30T08:36:37;18.40;99.90
11656;DHT22;5884;43.618;1.438;2023-08-30T08:39:04;18.40;99.90
11656;DHT22;5884;43.618;1.438;2023-08-30T08:41:35;18.50;99.90
11656;DHT22;5884;43.618;1.438;2023-08-30T08:44:07;18.60;99.90
11656;DHT22;5884;43.618;1.438;2023-08-30T08:46:35;18.60;99.90
11656;DHT22;5884;43.618;1.438;2023-08-30T08:49:09;18.90;99.90
11656;DHT22;5884;43.618;1.438;2023-08-30T08:51:39;18.70;99.90
11656;DHT22;5884;43.618;1.438;2023-08-30T08:54:07;18.60;99.90
11656;DHT22;5884;43.618;1.438;2023-08-30T08:56:36;18.60;99.90
11656;DHT22;5884;43.618;1.438;2023-08-30T08:59:05;18.60;99.90
11656;DHT22;5884;43.618;1.438;2023-08-30T09:01:33;18.70;99.90
11656;DHT22;5884;43.618;1.438;2023-08-30T09:04:06;18.70;99.90
11656;DHT22;5884;43.618;1.438;2023-08-30T09:06:34;18.50;99.90
11656;DHT22;5884;43.618;1.438;2023-08-30T09:09:02;18.50;99.90
11656;DHT22;5884;43.618;1.438;2023-08-30T09:11:30;18.70;99.90
11656;DHT22;5884;43.618;1.438;2023-08-30T09:13:57;18.80;99.90
11656;DHT22;5884;43.618;1.438;2023-08-30T09:16:25;19.10;99.90
11656;DHT22;5884;43.618;1.438;2023-08-30T09:18:59;19.30;99.90
11656;DHT22;5884;43.618;1.438;2023-08-30T09:21:28;19.50;99.90
11656;DHT22;5884;43.618;1.438;2023-08-30T09:23:57;19.80;99.90
11656;DHT22;5884;43.618;1.438;2023-08-30T09:26:25;19.70;99.90
11656;DHT22;5884;43.618;1.438;2023-08-30T09:28:54;19.60;99.90
11656;DHT22;5884;43.618;1.438;2023-08-30T09:31:21;19.50;99.90
11656;DHT22;5884;43.618;1.438;2023-08-30T09:33:49;19.30;99.90
11656;DHT22;5884;43.618;1.438;2023-08-30T09:36:19;19.10;99.90
11656;DHT22;5884;43.618;1.438;2023-08-30T09:38:50;19.10;99.90
11656;DHT22;5884;43.618;1.438;2023-08-30T09:41:18;19.10;99.90
11656;DHT22;5884;43.618;1.438;2023-08-30T09:43:45;19.10;99.90
11656;DHT22;5884;43.618;1.438;2023-08-30T09:46:13;19.30;99.90
11656;DHT22;5884;43.618;1.438;2023-08-30T09:48:41;19.30;99.90
11656;DHT22;5884;43.618;1.438;2023-08-30T09:51:09;19.50;99.90
11656;DHT22;5884;43.618;1.438;2023-08-30T09:53:42;19.70;99.90
11656;DHT22;5884;43.618;1.438;2023-08-30T09:56:13;19.60;99.90
11656;DHT22;5884;43.618;1.438;2023-08-30T09:58:41;19.70;99.90
11656;DHT22;5884;43.618;1.438;2023-08-30T10:01:09;19.70;99.90
11656;DHT22;5884;43.618;1.438;2023-08-30T10:03:37;19.90;99.90
11656;DHT22;5884;43.618;1.438;2023-08-30T10:06:06;19.80;99.90
11656;DHT22;5884;43.618;1.438;2023-08-30T10:08:34;19.70;99.90
11656;DHT22;5884;43.618;1.438;2023-08-30T10:11:05;19.90;99.90
11656;DHT22;5884;43.618;1.438;2023-08-30T10:13:35;20.10;99.90
11656;DHT22;5884;43.618;1.438;2023-08-30T10:16:06;20.20;99.90
11656;DHT22;5884;43.618;1.438;2023-08-30T10:18:35;20.60;99.90
11656;DHT22;5884;43.618;1.438;2023-08-30T10:21:07;20.60;99.90
11656;DHT22;5884;43.618;1.438;2023-08-30T10:23:37;20.30;99.90
11656;DHT22;5884;43.618;1.438;2023-08-30T10:26:06;20.20;99.90
11656;DHT22;5884;43.618;1.438;2023-08-30T10:28:36;20.10;99.90
11656;DHT22;5884;43.618;1.438;2023-08-30T10:31:05;20.20;99.90
11656;DHT22;5884;43.618;1.438;2023-08-30T10:33:46;20.40;99.90
11656;DHT22;5884;43.618;1.438;2023-08-30T10:36:20;20.20;99.90
11656;DHT22;5884;43.618;1.438;2023-08-30T10:38:49;20.40;99.90
11656;DHT22;5884;43.618;1.438;2023-08-30T10:41:21;20.60;99.90
11656;DHT22;5884;43.618;1.438;2023-08-30T10:43:52;20.60;99.90
11656;DHT22;5884;43.618;1.438;2023-08-30T10:46:30;20.70;99.90
11656;DHT22;5884;43.618;1.438;2023-08-30T10:49:08;21.00;99.90
11656;DHT22;5884;43.618;1.438;2023-08-30T10:51:38;21.00;99.90
11656;DHT22;5884;43.618;1.438;2023-08-30T10:54:12;21.10;99.90
11656;DHT22;5884;43.618;1.438;2023-08-30T10:56:48;21.00;99.90
11656;DHT22;5884;43.618;1.438;2023-08-30T10:59:18;20.80;99.90
11656;DHT22;5884;43.618;1.438;2023-08-30T11:01:47;20.80;99.90
11656;DHT22;5884;43.618;1.438;2023-08-30T11:04:15;20.90;99.90
11656;DHT22;5884;43.618;1.438;2023-08-30T11:06:44;21.00;99.90
11656;DHT22;5884;43.618;1.438;2023-08-30T11:09:17;21.00;99.90
11656;DHT22;5884;43.618;1.438;2023-08-30T11:11:45;21.00;99.90
11656;DHT22;5884;43.618;1.438;2023-08-30T11:14:12;21.00;99.90
11656;DHT22;5884;43.618;1.438;2023-08-30T11:16:41;21.10;99.90
11656;DHT22;5884;43.618;1.438;2023-08-30T11:19:10;21.10;99.90
11656;DHT22;5884;43.618;1.438;2023-08-30T11:21:39;21.10;99.90
11656;DHT22;5884;43.618;1.438;2023-08-30T11:24:07;21.10;99.90
11656;DHT22;5884;43.618;1.438;2023-08-30T11:26:35;21.20;99.90
11656;DHT22;5884;43.618;1.438;2023-08-30T11:29:05;21.30;99.90
11656;DHT22;5884;43.618;1.438;2023-08-30T11:31:33;21.30;99.90
11656;DHT22;5884;43.618;1.438;2023-08-30T11:34:02;21.20;99.90
11656;DHT22;5884;43.618;1.438;2023-08-30T11:36:31;21.20;99.90
11656;DHT22;5884;43.618;1.438;2023-08-30T11:38:59;21.10;99.90
11656;DHT22;5884;43.618;1.438;2023-08-30T11:41:26;21.20;99.90
11656;DHT22;5884;43.618;1.438;2023-08-30T11:43:54;21.20;99.90
11656;DHT22;5884;43.618;1.438;2023-08-30T11:46:22;21.20;99.90
11656;DHT22;5884;43.618;1.438;2023-08-30T11:48:50;21.30;99.90
11656;DHT22;5884;43.618;1.438;2023-08-30T11:51:20;21.60;99.90
11656;DHT22;5884;43.618;1.438;2023-08-30T11:53:47;21.80;99.90
11656;DHT22;5884;43.618;1.438;2023-08-30T11:56:15;21.70;99.90
11656;DHT22;5884;43.618;1.438;2023-08-30T11:58:44;21.50;99.90
11656;DHT22;5884;43.618;1.438;2023-08-30T12:01:12;21.80;99.90
11656;DHT22;5884;43.618;1.438;2023-08-30T12:03:40;21.90;99.90
11656;DHT22;5884;43.618;1.438;2023-08-30T12:06:10;21.50;99.90
11656;DHT22;5884;43.618;1.438;2023-08-30T12:08:39;21.60;99.90
11656;DHT22;5884;43.618;1.438;2023-08-30T12:11:17;21.60;99.90
11656;DHT22;5884;43.618;1.438;2023-08-30T12:13:45;21.70;99.90
11656;DHT22;5884;43.618;1.438;2023-08-30T12:16:16;21.60;99.90
11656;DHT22;5884;43.618;1.438;2023-08-30T12:18:44;21.50;99.90
11656;DHT22;5884;43.618;1.438;2023-08-30T12:21:13;21.70;99.90
11656;DHT22;5884;43.618;1.438;2023-08-30T12:23:43;22.30;99.90
11656;DHT22;5884;43.618;1.438;2023-08-30T12:26:10;22.70;99.90
11656;DHT22;5884;43.618;1.438;2023-08-30T12:28:38;22.60;99.90
11656;DHT22;5884;43.618;1.438;2023-08-30T12:31:07;22.40;99.90
11656;DHT22;5884;43.618;1.438;2023-08-30T12:33:35;22.00;99.90
11656;DHT22;5884;43.618;1.438;2023-08-30T12:36:03;21.90;99.90
11656;DHT22;5884;43.618;1.438;2023-08-30T12:38:30;21.90;99.90
11656;DHT22;5884;43.618;1.438;2023-08-30T12:40:59;21.80;99.90
11656;DHT22;5884;43.618;1.438;2023-08-30T12:43:26;22.00;99.90
11656;DHT22;5884;43.618;1.438;2023-08-30T12:45:54;22.20;99.90
11656;DHT22;5884;43.618;1.438;2023-08-30T12:48:21;22.40;99.90
11656;DHT22;5884;43.618;1.438;2023-08-30T12:50:48;22.60;99.90
11656;DHT22;5884;43.618;1.438;2023-08-30T12:53:16;22.70;99.90
11656;DHT22;5884;43.618;1.438;2023-08-30T12:55:43;22.60;99.90
11656;DHT22;5884;43.618;1.438;2023-08-30T12:58:12;22.80;99.90
11656;DHT22;5884;43.618;1.438;2023-08-30T13:00:39;22.90;99.90
11656;DHT22;5884;43.618;1.438;2023-08-30T13:03:07;22.70;99.90
11656;DHT22;5884;43.618;1.438;2023-08-30T13:05:34;23.00;99.90
11656;DHT22;5884;43.618;1.438;2023-08-30T13:08:01;23.00;99.90
11656;DHT22;5884;43.618;1.438;2023-08-30T13:10:29;23.00;99.90
11656;DHT22;5884;43.618;1.438;2023-08-30T13:12:56;23.00;99.90
11656;DHT22;5884;43.618;1.438;2023-08-30T13:15:25;23.30;99.90
11656;DHT22;5884;43.618;1.438;2023-08-30T13:17:52;23.10;99.90
11656;DHT22;5884;43.618;1.438;2023-08-30T13:20:19;23.00;99.90
11656;DHT22;5884;43.618;1.438;2023-08-30T13:22:46;23.00;99.90
11656;DHT22;5884;43.618;1.438;2023-08-30T13:25:14;23.20;99.90
11656;DHT22;5884;43.618;1.438;2023-08-30T13:27:41;23.30;99.90
11656;DHT22;5884;43.618;1.438;2023-08-30T13:30:08;23.30;99.90
11656;DHT22;5884;43.618;1.438;2023-08-30T13:32:37;23.30;99.90
11656;DHT22;5884;43.618;1.438;2023-08-30T13:35:05;23.10;99.90
11656;DHT22;5884;43.618;1.438;2023-08-30T13:37:33;22.90;99.90
11656;DHT22;5884;43.618;1.438;2023-08-30T13:40:00;22.80;99.90
11656;DHT22;5884;43.618;1.438;2023-08-30T13:42:31;22.90;99.90
11656;DHT22;5884;43.618;1.438;2023-08-30T13:44:58;22.80;99.90
11656;DHT22;5884;43.618;1.438;2023-08-30T13:47:26;22.60;99.90
11656;DHT22;5884;43.618;1.438;2023-08-30T13:49:54;22.50;99.90
11656;DHT22;5884;43.618;1.438;2023-08-30T13:52:21;22.50;99.90
11656;DHT22;5884;43.618;1.438;2023-08-30T13:54:49;22.80;99.90
11656;DHT22;5884;43.618;1.438;2023-08-30T13:57:17;22.80;99.90
11656;DHT22;5884;43.618;1.438;2023-08-30T13:59:44;22.60;99.90
11656;DHT22;5884;43.618;1.438;2023-08-30T14:02:11;22.80;99.90
11656;DHT22;5884;43.618;1.438;2023-08-30T14:04:39;23.00;99.90
11656;DHT22;5884;43.618;1.438;2023-08-30T14:07:07;23.20;99.90
11656;DHT22;5884;43.618;1.438;2023-08-30T14:09:35;23.30;99.90
11656;DHT22;5884;43.618;1.438;2023-08-30T14:12:03;23.20;99.90
11656;DHT22;5884;43.618;1.438;2023-08-30T14:14:30;23.10;99.90
11656;DHT22;5884;43.618;1.438;2023-08-30T14:16:58;23.30;99.90
11656;DHT22;5884;43.618;1.438;2023-08-30T14:19:25;23.50;99.90
11656;DHT22;5884;43.618;1.438;2023-08-30T14:21:52;23.50;99.90
11656;DHT22;5884;43.618;1.438;2023-08-30T14:24:22;23.50;99.90
11656;DHT22;5884;43.618;1.438;2023-08-30T14:26:50;23.40;99.90
11656;DHT22;5884;43.618;1.438;2023-08-30T14:29:20;23.50;99.90
11656;DHT22;5884;43.618;1.438;2023-08-30T14:31:48;23.60;99.90
11656;DHT22;5884;43.618;1.438;2023-08-30T14:34:15;23.40;99.90
11656;DHT22;5884;43.618;1.438;2023-08-30T14:36:42;23.20;99.90
11656;DHT22;5884;43.618;1.438;2023-08-30T14:39:11;23.00;99.90
11656;DHT22;5884;43.618;1.438;2023-08-30T14:41:40;22.90;99.90
11656;DHT22;5884;43.618;1.438;2023-08-30T14:44:07;22.90;99.90
11656;DHT22;5884;43.618;1.438;2023-08-30T14:46:34;22.80;99.90
11656;DHT22;5884;43.618;1.438;2023-08-30T14:49:02;22.90;99.90
11656;DHT22;5884;43.618;1.438;2023-08-30T14:51:29;23.10;99.90
11656;DHT22;5884;43.618;1.438;2023-08-30T14:53:56;23.20;99.90
11656;DHT22;5884;43.618;1.438;2023-08-30T14:56:23;23.40;99.90
11656;DHT22;5884;43.618;1.438;2023-08-30T14:58:52;23.70;99.90
11656;DHT22;5884;43.618;1.438;2023-08-30T15:01:19;23.80;99.90
11656;DHT22;5884;43.618;1.438;2023-08-30T15:03:46;24.00;99.90
11656;DHT22;5884;43.618;1.438;2023-08-30T15:06:14;24.10;99.90
11656;DHT22;5884;43.618;1.438;2023-08-30T15:08:43;24.10;99.90
11656;DHT22;5884;43.618;1.438;2023-08-30T15:11:11;23.80;99.90
11656;DHT22;5884;43.618;1.438;2023-08-30T15:13:38;23.80;99.90
11656;DHT22;5884;43.618;1.438;2023-08-30T15:16:06;23.90;99.90
11656;DHT22;5884;43.618;1.438;2023-08-30T15:18:34;24.00;99.90
11656;DHT22;5884;43.618;1.438;2023-08-30T15:21:01;24.10;99.90
11656;DHT22;5884;43.618;1.438;2023-08-30T15:23:28;24.10;99.90
11656;DHT22;5884;43.618;1.438;2023-08-30T15:25:55;23.80;99.90
11656;DHT22;5884;43.618;1.438;2023-08-30T15:28:23;23.60;99.90
11656;DHT22;5884;43.618;1.438;2023-08-30T15:30:50;23.60;99.90
11656;DHT22;5884;43.618;1.438;2023-08-30T15:33:19;23.70;99.90
11656;DHT22;5884;43.618;1.438;2023-08-30T15:35:46;23.60;99.90
11656;DHT22;5884;43.618;1.438;2023-08-30T15:38:13;23.60;99.90
11656;DHT22;5884;43.618;1.438;2023-08-30T15:40:41;23.70;99.90
11656;DHT22;5884;43.618;1.438;2023-08-30T15:43:08;23.80;99.90
11656;DHT22;5884;43.618;1.438;2023-08-30T15:45:36;23.60;99.90
11656;DHT22;5884;43.618;1.438;2023-08-30T15:48:03;23.40;99.90
11656;DHT22;5884;43.618;1.438;2023-08-30T15:50:33;23.30;99.90
11656;DHT22;5884;43.618;1.438;2023-08-30T15:53:00;23.30;99.90
11656;DHT22;5884;43.618;1.438;2023-08-30T15:55:27;23.40;99.90
11656;DHT22;5884;43.618;1.438;2023-08-30T15:57:56;23.50;99.90
11656;DHT22;5884;43.618;1.438;2023-08-30T16:00:23;23.50;99.90
11656;DHT22;5884;43.618;1.438;2023-08-30T16:02:51;23.50;99.90
11656;DHT22;5884;43.618;1.438;2023-08-30T16:05:18;23.40;99.90
11656;DHT22;5884;43.618;1.438;2023-08-30T16:07:47;23.40;99.90
11656;DHT22;5884;43.618;1.438;2023-08-30T16:10:14;23.30;99.90
11656;DHT22;5884;43.618;1.438;2023-08-30T16:12:41;23.30;99.90
11656;DHT22;5884;43.618;1.438;2023-08-30T16:15:09;23.30;99.90
11656;DHT22;5884;43.618;1.438;2023-08-30T16:17:37;23.50;99.90
11656;DHT22;5884;43.618;1.438;2023-08-30T16:20:05;23.70;99.90
11656;DHT22;5884;43.618;1.438;2023-08-30T16:22:32;23.70;99.90
11656;DHT22;5884;43.618;1.438;2023-08-30T16:25:01;23.70;99.90
11656;DHT22;5884;43.618;1.438;2023-08-30T16:27:29;23.80;99.90
11656;DHT22;5884;43.618;1.438;2023-08-30T16:29:56;23.80;99.90
11656;DHT22;5884;43.618;1.438;2023-08-30T16:32:25;23.80;99.90
11656;DHT22;5884;43.618;1.438;2023-08-30T16:34:53;23.80;99.90
11656;DHT22;5884;43.618;1.438;2023-08-30T16:37:20;23.70;99.90
11656;DHT22;5884;43.618;1.438;2023-08-30T16:39:47;23.60;99.90
11656;DHT22;5884;43.618;1.438;2023-08-30T16:42:17;23.70;99.90
11656;DHT22;5884;43.618;1.438;2023-08-30T16:44:44;23.60;99.90
11656;DHT22;5884;43.618;1.438;2023-08-30T16:47:11;23.70;99.90
11656;DHT22;5884;43.618;1.438;2023-08-30T16:49:41;23.60;99.90
11656;DHT22;5884;43.618;1.438;2023-08-30T16:52:08;23.50;99.90
11656;DHT22;5884;43.618;1.438;2023-08-30T16:54:36;23.30;99.90
11656;DHT22;5884;43.618;1.438;2023-08-30T16:57:04;23.30;99.90
11656;DHT22;5884;43.618;1.438;2023-08-30T16:59:32;23.20;99.90
11656;DHT22;5884;43.618;1.438;2023-08-30T17:02:00;23.20;99.90
11656;DHT22;5884;43.618;1.438;2023-08-30T17:04:29;23.20;99.90
11656;DHT22;5884;43.618;1.438;2023-08-30T17:06:56;23.20;99.90
11656;DHT22;5884;43.618;1.438;2023-08-30T17:09:25;23.30;99.90
11656;DHT22;5884;43.618;1.438;2023-08-30T17:11:56;23.30;99.90
11656;DHT22;5884;43.618;1.438;2023-08-30T17:14:24;23.30;99.90
11656;DHT22;5884;43.618;1.438;2023-08-30T17:16:53;23.20;99.90
11656;DHT22;5884;43.618;1.438;2023-08-30T17:19:21;23.20;99.90
11656;DHT22;5884;43.618;1.438;2023-08-30T17:21:49;23.20;99.90
11656;DHT22;5884;43.618;1.438;2023-08-30T17:24:16;23.20;99.90
11656;DHT22;5884;43.618;1.438;2023-08-30T17:26:43;23.10;99.90
11656;DHT22;5884;43.618;1.438;2023-08-30T17:29:10;23.10;99.90
11656;DHT22;5884;43.618;1.438;2023-08-30T17:31:40;23.10;99.90
11656;DHT22;5884;43.618;1.438;2023-08-30T17:34:09;22.90;99.90
11656;DHT22;5884;43.618;1.438;2023-08-30T17:36:36;22.80;99.90
11656;DHT22;5884;43.618;1.438;2023-08-30T17:39:08;22.60;99.90
11656;DHT22;5884;43.618;1.438;2023-08-30T17:41:36;22.60;99.90
11656;DHT22;5884;43.618;1.438;2023-08-30T17:44:04;22.50;99.90
11656;DHT22;5884;43.618;1.438;2023-08-30T17:46:31;22.20;99.90
11656;DHT22;5884;43.618;1.438;2023-08-30T17:49:01;21.90;99.90
11656;DHT22;5884;43.618;1.438;2023-08-30T17:51:30;21.80;99.90
11656;DHT22;5884;43.618;1.438;2023-08-30T17:53:57;21.60;99.90
11656;DHT22;5884;43.618;1.438;2023-08-30T17:56:24;21.50;99.90
11656;DHT22;5884;43.618;1.438;2023-08-30T17:58:52;21.40;99.90
11656;DHT22;5884;43.618;1.438;2023-08-30T18:01:19;21.30;99.90
11656;DHT22;5884;43.618;1.438;2023-08-30T18:03:46;21.20;99.90
11656;DHT22;5884;43.618;1.438;2023-08-30T18:06:13;21.10;99.90
11656;DHT22;5884;43.618;1.438;2023-08-30T18:08:42;20.90;99.90
11656;DHT22;5884;43.618;1.438;2023-08-30T18:11:11;20.90;99.90
11656;DHT22;5884;43.618;1.438;2023-08-30T18:13:39;20.70;99.90
11656;DHT22;5884;43.618;1.438;2023-08-30T18:16:07;20.80;99.90
11656;DHT22;5884;43.618;1.438;2023-08-30T18:18:36;20.60;99.90
11656;DHT22;5884;43.618;1.438;2023-08-30T18:21:03;20.60;99.90
11656;DHT22;5884;43.618;1.438;2023-08-30T18:23:31;20.50;99.90
11656;DHT22;5884;43.618;1.438;2023-08-30T18:25:59;20.40;99.90
11656;DHT22;5884;43.618;1.438;2023-08-30T18:28:27;20.40;99.90
11656;DHT22;5884;43.618;1.438;2023-08-30T18:30:54;20.30;99.90
11656;DHT22;5884;43.618;1.438;2023-08-30T18:33:21;20.10;99.90
11656;DHT22;5884;43.618;1.438;2023-08-30T18:35:49;19.90;99.90
11656;DHT22;5884;43.618;1.438;2023-08-30T18:38:17;19.90;99.90
11656;DHT22;5884;43.618;1.438;2023-08-30T18:40:44;19.80;99.90
11656;DHT22;5884;43.618;1.438;2023-08-30T18:43:12;19.80;99.90
11656;DHT22;5884;43.618;1.438;2023-08-30T18:45:44;19.70;99.90
11656;DHT22;5884;43.618;1.438;2023-08-30T18:48:11;19.70;99.90
11656;DHT22;5884;43.618;1.438;2023-08-30T18:50:40;19.70;99.90
11656;DHT22;5884;43.618;1.438;2023-08-30T18:53:07;19.60;99.90
11656;DHT22;5884;43.618;1.438;2023-08-30T18:55:37;19.50;99.90
11656;DHT22;5884;43.618;1.438;2023-08-30T18:58:04;19.50;99.90
11656;DHT22;5884;43.618;1.438;2023-08-30T19:00:33;19.40;99.90
11656;DHT22;5884;43.618;1.438;2023-08-30T19:03:00;19.50;99.90
11656;DHT22;5884;43.618;1.438;2023-08-30T19:05:28;19.40;99.90
11656;DHT22;5884;43.618;1.438;2023-08-30T19:07:56;19.40;99.90
11656;DHT22;5884;43.618;1.438;2023-08-30T19:10:23;19.40;99.90
11656;DHT22;5884;43.618;1.438;2023-08-30T19:12:51;19.30;99.90
11656;DHT22;5884;43.618;1.438;2023-08-30T19:15:19;19.40;99.90
11656;DHT22;5884;43.618;1.438;2023-08-30T19:17:48;19.40;99.90
11656;DHT22;5884;43.618;1.438;2023-08-30T19:20:15;19.30;99.90
11656;DHT22;5884;43.618;1.438;2023-08-30T19:22:43;19.30;99.90
11656;DHT22;5884;43.618;1.438;2023-08-30T19:25:10;19.30;99.90
11656;DHT22;5884;43.618;1.438;2023-08-30T19:27:41;19.20;99.90
11656;DHT22;5884;43.618;1.438;2023-08-30T19:30:11;19.10;99.90
11656;DHT22;5884;43.618;1.438;2023-08-30T19:32:39;19.10;99.90
11656;DHT22;5884;43.618;1.438;2023-08-30T19:35:09;19.10;99.90
11656;DHT22;5884;43.618;1.438;2023-08-30T19:37:37;19.10;99.90
11656;DHT22;5884;43.618;1.438;2023-08-30T19:40:08;19.10;99.90
11656;DHT22;5884;43.618;1.438;2023-08-30T19:42:37;19.00;99.90
11656;DHT22;5884;43.618;1.438;2023-08-30T19:45:06;18.80;99.90
11656;DHT22;5884;43.618;1.438;2023-08-30T19:47:34;18.80;99.90
11656;DHT22;5884;43.618;1.438;2023-08-30T19:50:02;18.80;99.90
11656;DHT22;5884;43.618;1.438;2023-08-30T19:52:31;18.80;99.90
11656;DHT22;5884;43.618;1.438;2023-08-30T19:54:59;18.80;99.90
11656;DHT22;5884;43.618;1.438;2023-08-30T19:57:29;18.80;99.90
11656;DHT22;5884;43.618;1.438;2023-08-30T19:59:56;18.70;99.90
11656;DHT22;5884;43.618;1.438;2023-08-30T20:02:24;18.70;99.90
11656;DHT22;5884;43.618;1.438;2023-08-30T20:04:52;18.60;99.90
11656;DHT22;5884;43.618;1.438;2023-08-30T20:07:20;18.60;99.90
11656;DHT22;5884;43.618;1.438;2023-08-30T20:09:51;18.60;99.90
11656;DHT22;5884;43.618;1.438;2023-08-30T20:12:18;18.60;99.90
11656;DHT22;5884;43.618;1.438;2023-08-30T20:14:46;18.50;99.90
11656;DHT22;5884;43.618;1.438;2023-08-30T20:17:14;18.50;99.90
11656;DHT22;5884;43.618;1.438;2023-08-30T20:19:42;18.50;99.90
11656;DHT22;5884;43.618;1.438;2023-08-30T20:22:09;18.50;99.90
11656;DHT22;5884;43.618;1.438;2023-08-30T20:24:38;18.40;99.90
11656;DHT22;5884;43.618;1.438;2023-08-30T20:27:06;18.40;99.90
11656;DHT22;5884;43.618;1.438;2023-08-30T20:29:33;18.40;99.90
11656;DHT22;5884;43.618;1.438;2023-08-30T20:32:01;18.40;99.90
11656;DHT22;5884;43.618;1.438;2023-08-30T20:34:32;18.40;99.90
11656;DHT22;5884;43.618;1.438;2023-08-30T20:37:00;18.40;99.90